Time;durP1;ratioP1;P1;durP2;ratioP2;P2;SDS_P1;SDS_P2;PMS_P1;PMS_P2;Temp;Humidity;BMP_temperature;BMP_pressure;BME280_temperature;BME280_humidity;BME280_pressure;Samples;Min_cycle;Max_cycle;Signal;HPM_P1;HPM_P2
2022/04/26 03:36:41;;;;;;;14.90;7.13;;;7.70;99.90;;;;;;5010002;28;20115;-77
2022/04/26 03:39:07;;;;;;;16.77;8.15;;;7.60;99.90;;;;;;5001099;28;20042;-78
2022/04/26 03:41:34;;;;;;;17.00;8.02;;;7.60;99.90;;;;;;5006747;28;20493;-77
2022/04/26 03:44:00;;;;;;;15.07;8.38;;;7.70;99.90;;;;;;5013747;28;20045;-78
2022/04/26 03:46:26;;;;;;;16.33;8.35;;;7.60;99.90;;;;;;5009975;28;20038;-78
2022/04/26 03:48:51;;;;;;;16.90;8.45;;;7.50;99.90;;;;;;5010575;28;20038;-78
2022/04/26 03:51:17;;;;;;;18.67;8.93;;;7.50;99.90;;;;;;4992630;28;20046;-77
2022/04/26 03:53:43;;;;;;;17.83;8.18;;;7.50;99.90;;;;;;5009655;28;20455;-78
2022/04/26 03:56:08;;;;;;;19.08;8.73;;;7.60;99.90;;;;;;5009324;28;20045;-79
2022/04/26 03:58:34;;;;;;;18.50;7.90;;;7.50;99.90;;;;;;4993012;28;20416;-78
2022/04/26 04:01:00;;;;;;;16.63;8.43;;;7.50;99.90;;;;;;4976847;28;20041;-78
2022/04/26 04:03:26;;;;;;;18.52;8.25;;;7.50;99.90;;;;;;4992913;28;20474;-79
2022/04/26 04:05:52;;;;;;;19.73;9.07;;;7.40;99.90;;;;;;4993192;28;20132;-78
2022/04/26 04:08:18;;;;;;;18.42;7.60;;;7.40;99.90;;;;;;4976827;28;20125;-78
2022/04/26 04:10:44;;;;;;;14.82;7.38;;;7.40;99.90;;;;;;5009220;28;20546;-78
2022/04/26 04:13:10;;;;;;;14.48;7.20;;;7.40;99.90;;;;;;4991588;28;20037;-78
2022/04/26 04:15:36;;;;;;;18.75;7.15;;;7.40;99.90;;;;;;4992937;28;20120;-79
2022/04/26 04:18:02;;;;;;;15.50;8.18;;;7.40;99.90;;;;;;4976714;28;20042;-79
2022/04/26 04:20:29;;;;;;;17.15;8.02;;;7.40;99.90;;;;;;4976085;28;20048;-80
2022/04/26 04:22:55;;;;;;;17.15;7.65;;;7.40;99.90;;;;;;4992760;28;20045;-80
2022/04/26 04:25:21;;;;;;;19.70;7.32;;;7.40;99.90;;;;;;4992976;28;20041;-79
2022/04/26 04:27:47;;;;;;;16.65;7.28;;;7.40;99.90;;;;;;4995634;28;20057;-80
2022/04/26 04:30:13;;;;;;;16.17;7.38;;;7.40;99.90;;;;;;5011298;28;20046;-79
2022/04/26 04:32:38;;;;;;;12.93;6.65;;;7.40;99.90;;;;;;5009807;28;20069;-79
2022/04/26 04:35:05;;;;;;;11.40;6.10;;;7.40;99.90;;;;;;4996697;28;20045;-79
2022/04/26 04:37:31;;;;;;;15.55;6.47;;;7.40;99.90;;;;;;4998593;28;20042;-80
2022/04/26 04:39:56;;;;;;;20.10;9.13;;;7.40;99.90;;;;;;5012994;28;20042;-80
2022/04/26 04:42:22;;;;;;;15.52;7.30;;;7.50;99.90;;;;;;5013047;28;20045;-79
2022/04/26 04:44:48;;;;;;;16.45;7.03;;;7.40;99.90;;;;;;5014679;28;20042;-80
2022/04/26 04:47:13;;;;;;;16.23;6.47;;;7.50;99.90;;;;;;5013530;28;20092;-79
2022/04/26 04:49:39;;;;;;;17.65;7.22;;;7.50;99.90;;;;;;4995010;28;20703;-80
2022/04/26 04:52:05;;;;;;;13.52;6.32;;;7.50;99.90;;;;;;5014089;28;20038;-80
2022/04/26 04:54:30;;;;;;;19.80;7.05;;;7.50;99.90;;;;;;4995714;28;20124;-79
2022/04/26 04:56:56;;;;;;;21.92;7.72;;;7.50;99.90;;;;;;4995693;28;20129;-79
2022/04/26 04:59:22;;;;;;;15.88;7.57;;;7.60;99.90;;;;;;4997290;28;20137;-76
2022/04/26 05:01:47;;;;;;;16.63;6.93;;;7.60;99.90;;;;;;5015054;28;20386;-79
2022/04/26 05:04:13;;;;;;;10.25;5.97;;;7.60;99.90;;;;;;5016140;28;20045;-79
2022/04/26 05:06:38;;;;;;;16.73;6.43;;;7.70;99.90;;;;;;5015801;28;20097;-78
2022/04/26 05:09:04;;;;;;;14.20;6.63;;;7.60;99.90;;;;;;4998646;28;20404;-78
2022/04/26 05:11:29;;;;;;;17.73;7.38;;;7.70;99.90;;;;;;5014271;28;20254;-78
2022/04/26 05:13:55;;;;;;;16.75;6.43;;;7.60;99.90;;;;;;4995982;28;20488;-79
2022/04/26 05:16:20;;;;;;;17.85;7.18;;;7.60;99.90;;;;;;5012593;28;20048;-79
2022/04/26 05:18:46;;;;;;;15.35;6.78;;;7.60;99.90;;;;;;5012723;28;20046;-79
2022/04/26 05:21:15;;;;;;;18.77;7.28;;;7.60;99.90;;;;;;4996084;28;20049;-78
2022/04/26 05:26:26;;;;;;;25.90;10.18;;;7.70;99.90;;;;;;5012636;28;20451;-78
2022/04/26 05:28:52;;;;;;;18.42;8.05;;;7.70;99.90;;;;;;4979626;28;20132;-79
2022/04/26 05:31:17;;;;;;;17.85;7.55;;;7.70;99.90;;;;;;4995963;28;20045;-79
2022/04/26 05:33:43;;;;;;;11.23;6.25;;;7.70;99.90;;;;;;5011944;28;20123;-77
2022/04/26 05:36:09;;;;;;;16.08;6.55;;;7.80;99.90;;;;;;4995263;28;20076;-78
2022/04/26 05:38:35;;;;;;;13.90;6.60;;;7.80;99.90;;;;;;4995382;28;20544;-78
2022/04/26 05:41:01;;;;;;;15.00;6.25;;;7.80;99.90;;;;;;4995180;28;20330;-79
2022/04/26 05:43:26;;;;;;;13.65;5.82;;;7.80;99.90;;;;;;4979280;28;20050;-78
2022/04/26 05:45:52;;;;;;;12.40;6.22;;;7.80;99.90;;;;;;4995545;28;20531;-77
2022/04/26 05:48:18;;;;;;;17.17;6.13;;;7.80;99.90;;;;;;4977522;28;20038;-78
2022/04/26 05:50:44;;;;;;;11.52;4.90;;;7.80;99.90;;;;;;5012232;28;20349;-78
2022/04/26 05:53:10;;;;;;;17.85;6.20;;;7.80;99.90;;;;;;5011163;28;20104;-78
2022/04/26 05:55:35;;;;;;;12.50;5.47;;;7.90;99.90;;;;;;4995176;28;20088;-78
2022/04/26 05:58:04;;;;;;;10.50;5.20;;;7.90;99.90;;;;;;5011282;28;20053;-77
2022/04/26 06:00:29;;;;;;;14.50;4.80;;;7.90;99.90;;;;;;4994812;28;20045;-78
2022/04/26 06:02:55;;;;;;;14.73;4.90;;;8.00;99.90;;;;;;5011344;28;20408;-78
2022/04/26 06:05:20;;;;;;;14.18;5.05;;;8.00;99.90;;;;;;5012532;28;20509;-77
2022/04/26 06:07:46;;;;;;;11.77;5.18;;;8.10;99.90;;;;;;5011500;28;20100;-78
2022/04/26 06:10:12;;;;;;;10.20;4.53;;;8.20;99.90;;;;;;5009984;28;20042;-78
2022/04/26 06:12:39;;;;;;;13.85;4.43;;;8.20;99.90;;;;;;5010323;28;20044;-77
2022/04/26 06:15:05;;;;;;;10.65;5.43;;;8.30;99.90;;;;;;4994709;28;20061;-78
2022/04/26 06:17:32;;;;;;;11.02;4.50;;;8.30;99.90;;;;;;4978707;28;20030;-79
2022/04/26 06:19:58;;;;;;;8.73;4.57;;;8.50;99.90;;;;;;5010352;28;20141;-78
2022/04/26 06:22:24;;;;;;;10.57;4.35;;;8.60;99.90;;;;;;4994438;28;20132;-78
2022/04/26 06:24:50;;;;;;;9.80;5.00;;;8.80;99.90;;;;;;5012133;28;20092;-78
2022/04/26 06:27:16;;;;;;;13.20;4.20;;;9.00;99.90;;;;;;5010911;28;20042;-78
2022/04/26 06:29:43;;;;;;;13.10;4.97;;;9.20;99.90;;;;;;5010152;28;20049;-77
2022/04/26 06:32:08;;;;;;;13.70;4.35;;;9.30;99.90;;;;;;4994569;28;20042;-79
2022/04/26 06:34:34;;;;;;;7.07;3.63;;;9.50;99.90;;;;;;5011711;28;20041;-79
2022/04/26 06:36:59;;;;;;;11.50;3.45;;;9.70;99.90;;;;;;4978133;28;20037;-79
2022/04/26 06:39:25;;;;;;;7.53;3.72;;;9.90;99.90;;;;;;5001247;28;20057;-79
2022/04/26 06:41:51;;;;;;;10.10;3.80;;;10.10;99.90;;;;;;5024109;28;20049;-77
2022/04/26 06:44:17;;;;;;;10.50;3.58;;;10.30;99.90;;;;;;5020729;28;20128;-78
2022/04/26 06:46:42;;;;;;;9.93;3.55;;;10.40;99.90;;;;;;5012341;28;20125;-79
2022/04/26 06:49:08;;;;;;;13.40;4.30;;;10.50;99.90;;;;;;4993843;28;20421;-79
2022/04/26 06:51:37;;;;;;;14.95;4.72;;;10.80;99.90;;;;;;4993770;28;20057;-79
2022/04/26 06:54:03;;;;;;;14.75;3.70;;;11.10;99.90;;;;;;4994157;28;20081;-79
2022/04/26 06:56:29;;;;;;;9.45;3.88;;;11.20;99.90;;;;;;5011434;28;20476;-79
2022/04/26 06:58:55;;;;;;;11.27;3.95;;;11.20;99.90;;;;;;5010579;28;20050;-79
2022/04/26 07:01:21;;;;;;;7.93;3.00;;;11.20;99.90;;;;;;5010048;28;20052;-79
2022/04/26 07:03:46;;;;;;;8.82;3.65;;;11.30;99.90;;;;;;4994284;28;20121;-79
2022/04/26 07:06:12;;;;;;;7.57;3.22;;;11.40;99.90;;;;;;4993630;28;20046;-80
2022/04/26 07:08:38;;;;;;;9.40;3.08;;;11.60;99.90;;;;;;4993548;28;20041;-79
2022/04/26 07:11:03;;;;;;;9.05;3.15;;;11.80;99.90;;;;;;4993708;28;20041;-79
2022/04/26 07:13:29;;;;;;;6.30;2.90;;;12.00;99.90;;;;;;4994239;28;20034;-79
2022/04/26 07:15:54;;;;;;;11.70;2.80;;;12.10;99.90;;;;;;5011450;28;20073;-80
2022/04/26 07:18:20;;;;;;;8.82;2.95;;;11.90;99.90;;;;;;4994078;28;20045;-79
2022/04/26 07:20:46;;;;;;;7.82;3.03;;;11.90;99.90;;;;;;5010568;28;20550;-79
2022/04/26 07:23:12;;;;;;;7.75;3.30;;;12.00;99.90;;;;;;4994559;28;20037;-79
2022/04/26 07:25:39;;;;;;;10.93;4.40;;;12.00;99.90;;;;;;5012235;28;20042;-79
2022/04/26 07:28:05;;;;;;;6.35;3.08;;;11.90;99.90;;;;;;4995513;28;20393;-79
2022/04/26 07:30:36;;;;;;;8.15;2.97;;;11.60;99.90;;;;;;4994275;28;20121;-79
2022/04/26 07:35:48;;;;;;;11.93;3.70;;;11.20;99.90;;;;;;4994634;28;20065;-78
2022/04/26 07:38:14;;;;;;;11.10;3.53;;;11.00;99.90;;;;;;4995496;28;20442;-79
2022/04/26 07:40:40;;;;;;;7.75;3.53;;;10.90;99.90;;;;;;4994803;28;20060;-79
2022/04/26 07:43:06;;;;;;;6.78;2.53;;;10.90;99.90;;;;;;4995765;28;20034;-79
2022/04/26 07:45:32;;;;;;;13.32;3.30;;;10.70;99.90;;;;;;4995536;28;20038;-79
2022/04/26 07:47:59;;;;;;;5.25;3.40;;;10.70;99.90;;;;;;4995008;28;20045;-79
2022/04/26 07:50:25;;;;;;;6.90;3.22;;;10.60;99.90;;;;;;4978335;28;20038;-79
2022/04/26 07:52:51;;;;;;;5.30;2.78;;;10.60;99.90;;;;;;4978910;28;20169;-79
2022/04/26 07:55:16;;;;;;;9.40;3.17;;;10.50;99.90;;;;;;4994814;28;20050;-79
2022/04/26 07:57:42;;;;;;;3.97;2.83;;;10.50;99.90;;;;;;4995746;28;20062;-79
2022/04/26 08:00:08;;;;;;;5.90;2.88;;;10.50;99.90;;;;;;4994121;28;20045;-79
2022/04/26 08:02:35;;;;;;;5.68;2.40;;;10.60;99.90;;;;;;4979534;28;20061;-80
2022/04/26 08:05:01;;;;;;;7.85;2.83;;;10.60;99.90;;;;;;5011881;28;20076;-79
2022/04/26 08:07:31;;;;;;;5.60;2.47;;;10.60;99.90;;;;;;5011781;28;20049;-79
2022/04/26 08:09:57;;;;;;;3.42;2.08;;;10.70;99.90;;;;;;5010853;28;20033;-79
2022/04/26 08:12:23;;;;;;;4.20;2.13;;;10.90;99.90;;;;;;4995430;28;20559;-81
2022/04/26 08:14:48;;;;;;;6.72;3.28;;;10.90;99.90;;;;;;5010228;28;20077;-81
2022/04/26 08:17:15;;;;;;;6.63;2.95;;;10.90;99.90;;;;;;5011852;28;20042;-81
2022/04/26 08:19:41;;;;;;;4.97;2.22;;;11.00;99.90;;;;;;4993061;28;20100;-82
2022/04/26 08:22:07;;;;;;;4.32;1.95;;;10.90;99.90;;;;;;5011296;28;20165;-83
2022/04/26 08:27:22;;;;;;;8.05;3.20;;;11.00;99.90;;;;;;4992865;28;20396;-81
2022/04/26 08:29:48;;;;;;;10.73;3.03;;;11.50;99.90;;;;;;4993429;28;20045;-81
2022/04/26 08:32:14;;;;;;;7.07;2.95;;;12.00;99.90;;;;;;4992947;28;20046;-81
2022/04/26 08:34:41;;;;;;;9.52;2.70;;;12.30;99.90;;;;;;4995230;28;20030;-81
2022/04/26 08:37:09;;;;;;;5.00;2.28;;;12.20;99.90;;;;;;4997814;28;20046;-81
2022/04/26 08:39:35;;;;;;;6.20;2.10;;;12.10;99.90;;;;;;4980808;28;20049;-81
2022/04/26 08:42:03;;;;;;;4.53;2.05;;;12.30;99.90;;;;;;4996722;28;20501;-80
2022/04/26 08:44:30;;;;;;;5.28;1.98;;;12.60;99.90;;;;;;4980532;28;20489;-80
2022/04/26 08:52:26;;;;;;;9.05;3.08;;;12.50;99.90;;;;;;4996363;28;20054;-79
2022/04/26 08:54:52;;;;;;;2.83;1.73;;;12.60;99.90;;;;;;5012277;28;20038;-80
2022/04/26 08:57:18;;;;;;;5.80;2.35;;;12.80;99.90;;;;;;4998130;28;20038;-79
2022/04/26 08:59:50;;;;;;;5.55;2.30;;;13.00;99.90;;;;;;5014559;28;20472;-78
2022/04/26 09:02:23;;;;;;;4.45;2.25;;;13.10;99.90;;;;;;5015766;28;20497;-78
2022/04/26 09:04:59;;;;;;;6.45;2.05;;;13.00;99.90;;;;;;5012786;28;20045;-78
2022/04/26 09:07:30;;;;;;;4.15;1.98;;;13.00;99.90;;;;;;4995979;28;20049;-79
2022/04/26 09:10:09;;;;;;;5.05;2.40;;;13.00;99.90;;;;;;4995597;28;20052;-78
2022/04/26 09:13:08;;;;;;;6.15;2.58;;;12.90;99.90;;;;;;5011991;28;20042;-77
2022/04/26 09:15:38;;;;;;;6.40;2.10;;;12.80;99.90;;;;;;4995696;28;20045;-77
2022/04/26 09:18:20;;;;;;;4.78;2.33;;;12.80;99.90;;;;;;5011951;28;20073;-77
2022/04/26 09:20:46;;;;;;;;;;;12.70;99.90;;;;;;5012441;28;20052;-78
2022/04/26 09:23:29;;;;;;;8.32;2.22;;;12.50;99.90;;;;;;4995725;28;20079;-78
2022/04/26 09:26:07;;;;;;;6.18;2.30;;;12.40;99.90;;;;;;4995799;28;20042;-78
2022/04/26 09:28:33;;;;;;;3.75;1.88;;;12.40;99.90;;;;;;5012274;28;20096;-78
2022/04/26 09:30:59;;;;;;;5.75;2.50;;;12.30;99.90;;;;;;4995137;28;20042;-77
2022/04/26 09:33:39;;;;;;;5.85;2.50;;;12.40;99.90;;;;;;4995529;28;20046;-77
2022/04/26 09:36:09;;;;;;;5.72;2.40;;;12.30;99.90;;;;;;4995867;28;20076;-77
2022/04/26 09:38:38;;;;;;;4.93;2.63;;;12.30;99.90;;;;;;4996167;28;20034;-77
2022/04/26 09:41:07;;;;;;;8.38;2.22;;;12.50;99.90;;;;;;5011791;28;20053;-77
2022/04/26 09:43:33;;;;;;;4.45;1.90;;;12.60;99.90;;;;;;4996413;28;20157;-77
2022/04/26 09:45:59;;;;;;;4.45;2.47;;;12.60;99.90;;;;;;4995020;28;20521;-78
2022/04/26 09:48:35;;;;;;;4.53;2.70;;;12.70;99.90;;;;;;5011507;28;20061;-77
2022/04/26 09:51:02;;;;;;;5.57;2.30;;;12.80;99.90;;;;;;4994787;28;20513;-77
2022/04/26 09:53:29;;;;;;;8.90;2.75;;;12.90;99.90;;;;;;5011474;28;20096;-77
2022/04/26 09:55:56;;;;;;;9.27;2.38;;;13.00;99.90;;;;;;4994812;28;20046;-78
2022/04/26 09:58:24;;;;;;;8.27;2.47;;;13.00;99.90;;;;;;5011304;28;20131;-77
2022/04/26 10:00:51;;;;;;;8.05;2.90;;;13.10;99.90;;;;;;4978804;28;20045;-77
2022/04/26 10:03:39;;;;;;;4.47;2.40;;;13.10;99.90;;;;;;4979042;28;20065;-78
2022/04/26 10:06:08;;;;;;;9.20;2.97;;;13.10;99.90;;;;;;5011317;28;20073;-77
2022/04/26 10:08:35;;;;;;;4.03;2.38;;;13.00;99.90;;;;;;5010611;28;20044;-76
2022/04/26 10:11:02;;;;;;;6.40;2.60;;;13.20;99.90;;;;;;4997094;28;20060;-77
2022/04/26 10:13:31;;;;;;;5.10;2.72;;;13.50;99.90;;;;;;5007066;28;20064;-77
2022/04/26 10:16:09;;;;;;;5.75;2.38;;;13.90;99.90;;;;;;5005958;28;20053;-78
2022/04/26 10:18:45;;;;;;;7.72;2.65;;;14.50;99.90;;;;;;4999403;28;20050;-77
2022/04/26 10:21:32;;;;;;;7.93;2.55;;;14.60;99.90;;;;;;4994414;28;20650;-78
2022/04/26 10:24:01;;;;;;;6.13;2.60;;;14.40;99.90;;;;;;4994720;28;20046;-78
2022/04/26 10:26:27;;;;;;;4.50;2.30;;;14.20;99.90;;;;;;5010836;28;20046;-77
2022/04/26 10:28:58;;;;;;;6.90;2.20;;;14.40;99.90;;;;;;4994318;28;20560;-77
2022/04/26 10:31:37;;;;;;;3.17;2.38;;;14.80;99.90;;;;;;4977826;28;20042;-79
2022/04/26 10:34:31;;;;;;;4.82;2.50;;;15.10;99.30;;;;;;4994103;28;20042;-79
2022/04/26 10:36:59;;;;;;;6.00;2.38;;;15.20;93.20;;;;;;4994438;28;20042;-76
2022/04/26 10:39:50;;;;;;;3.58;2.30;;;15.10;98.30;;;;;;5011649;28;20060;-79
2022/04/26 10:42:16;;;;;;;3.05;1.90;;;15.20;92.20;;;;;;4994540;28;20061;-79
2022/04/26 10:44:46;;;;;;;3.25;2.08;;;15.40;95.10;;;;;;5010825;28;20038;-75
2022/04/26 10:47:12;;;;;;;8.30;2.35;;;15.70;90.20;;;;;;4993982;28;20045;-78
2022/04/26 10:49:42;;;;;;;5.88;2.80;;;15.90;92.50;;;;;;5009950;28;20117;-78
2022/04/26 10:52:10;;;;;;;6.65;2.55;;;15.80;85.80;;;;;;4993785;28;20058;-78
2022/04/26 10:55:07;;;;;;;4.93;2.15;;;15.80;84.80;;;;;;4993905;28;20041;-79
2022/04/26 10:57:44;;;;;;;4.10;2.42;;;15.70;84.90;;;;;;5009556;28;20509;-79
2022/04/26 11:00:26;;;;;;;5.35;2.22;;;15.50;83.70;;;;;;4977568;28;20062;-78
2022/04/26 11:02:51;;;;;;;6.03;2.05;;;15.40;87.40;;;;;;4977916;28;20042;-79
2022/04/26 11:05:23;;;;;;;6.85;2.40;;;15.40;86.50;;;;;;4993828;28;20048;-79
2022/04/26 11:07:49;;;;;;;8.57;2.92;;;15.40;84.90;;;;;;4994039;28;20072;-78
2022/04/26 11:10:26;;;;;;;3.58;1.90;;;15.60;84.00;;;;;;5009434;28;20038;-79
2022/04/26 11:12:55;;;;;;;4.70;2.17;;;15.70;79.60;;;;;;4993708;28;20042;-78
2022/04/26 11:15:22;;;;;;;3.08;1.73;;;15.60;81.40;;;;;;4993708;28;20042;-79
2022/04/26 11:17:50;;;;;;;5.93;2.17;;;15.50;81.90;;;;;;4977807;28;20045;-76
2022/04/26 11:20:21;;;;;;;5.85;2.30;;;15.60;75.60;;;;;;4992920;28;20052;-77
2022/04/26 11:22:57;;;;;;;3.95;2.05;;;15.80;76.40;;;;;;4993474;28;20037;-77
2022/04/26 11:28:14;;;;;;;5.20;2.25;;;16.10;75.00;;;;;;4993181;28;20060;-77
2022/04/26 11:30:48;;;;;;;5.38;2.05;;;15.90;74.90;;;;;;4976976;28;20230;-76
2022/04/26 11:33:24;;;;;;;6.43;1.88;;;15.60;76.30;;;;;;4993421;28;20049;-76
2022/04/26 11:36:01;;;;;;;5.53;2.25;;;15.50;74.80;;;;;;5009975;28;20049;-76
2022/04/26 11:38:27;;;;;;;3.20;2.17;;;15.80;75.50;;;;;;5009655;28;20052;-76
2022/04/26 11:40:58;;;;;;;5.47;2.67;;;16.10;76.80;;;;;;5009477;28;20491;-76
2022/04/26 11:43:31;;;;;;;4.50;2.03;;;16.10;71.00;;;;;;5010799;28;20046;-78
2022/04/26 11:45:57;;;;;;;3.30;1.75;;;16.10;72.60;;;;;;4977209;28;20502;-76
2022/04/26 11:48:29;;;;;;;4.82;1.88;;;16.30;74.40;;;;;;4993190;28;20038;-77
2022/04/26 11:50:57;;;;;;;4.13;1.90;;;16.50;71.90;;;;;;4977007;28;20042;-76
2022/04/26 11:53:25;;;;;;;2.90;1.90;;;16.40;67.30;;;;;;4993347;28;20156;-77
2022/04/26 11:56:02;;;;;;;3.45;1.80;;;16.00;68.70;;;;;;4993287;28;20401;-77
2022/04/26 11:58:28;;;;;;;4.68;2.25;;;15.80;67.60;;;;;;4993016;28;20034;-77
2022/04/26 12:01:13;;;;;;;4.03;1.40;;;15.90;69.20;;;;;;5009113;28;20515;-77
2022/04/26 12:03:49;;;;;;;2.92;1.92;;;16.10;69.80;;;;;;4993082;28;20091;-77
2022/04/26 12:06:32;;;;;;;3.63;1.95;;;16.10;69.30;;;;;;4993166;28;20444;-76
2022/04/26 12:09:01;;;;;;;3.33;1.90;;;15.90;65.60;;;;;;5011239;28;20042;-77
2022/04/26 12:11:35;;;;;;;4.95;2.00;;;15.60;69.80;;;;;;5013194;28;20080;-77
2022/04/26 12:14:11;;;;;;;6.72;1.92;;;15.40;70.10;;;;;;5014890;28;20034;-77
2022/04/26 12:16:44;;;;;;;6.15;2.08;;;15.20;70.10;;;;;;4996931;28;20037;-77
2022/04/26 12:19:10;;;;;;;3.85;1.77;;;15.30;70.50;;;;;;4996675;28;20092;-77
2022/04/26 12:21:46;;;;;;;3.58;1.90;;;15.50;70.70;;;;;;4996291;28;20053;-76
2022/04/26 12:24:21;;;;;;;2.20;1.70;;;15.70;68.80;;;;;;5013677;28;20132;-76
2022/04/26 12:26:56;;;;;;;5.65;2.05;;;15.80;69.00;;;;;;4996807;28;20108;-77
2022/04/26 12:29:24;;;;;;;2.58;1.75;;;15.60;67.20;;;;;;5013058;28;20041;-78
2022/04/26 12:31:50;;;;;;;5.60;2.03;;;15.50;67.40;;;;;;4980047;28;20556;-77
2022/04/26 12:34:18;;;;;;;3.63;1.92;;;15.50;68.60;;;;;;4996674;28;20126;-76
2022/04/26 12:37:07;;;;;;;4.85;1.80;;;15.70;68.90;;;;;;4996680;28;20038;-76
2022/04/26 12:39:38;;;;;;;6.85;3.13;;;15.90;64.40;;;;;;4995976;28;20046;-77
2022/04/26 12:42:04;;;;;;;5.03;1.75;;;16.00;65.00;;;;;;4997158;28;20195;-77
2022/04/26 12:44:30;;;;;;;4.72;1.70;;;16.00;65.70;;;;;;5013309;28;20444;-76
2022/04/26 12:52:54;;;;;;;3.95;2.03;;;15.70;62.40;;;;;;5012870;28;20405;-77
2022/04/26 12:55:53;;;;;;;4.78;1.85;;;15.70;65.60;;;;;;4980000;28;20034;-77
2022/04/26 12:58:37;;;;;;;3.88;2.08;;;16.10;64.10;;;;;;4983510;28;20393;-76
2022/04/26 13:01:03;;;;;;;4.50;1.88;;;16.40;60.20;;;;;;4995810;28;20568;-77
2022/04/26 13:03:29;;;;;;;5.38;1.42;;;16.60;62.60;;;;;;4996021;28;20563;-77
2022/04/26 13:06:11;;;;;;;3.28;1.92;;;16.50;61.70;;;;;;5013791;28;20042;-76
2022/04/26 13:08:38;;;;;;;7.57;2.17;;;16.40;59.80;;;;;;5012370;28;20489;-77
2022/04/26 13:11:05;;;;;;;4.15;1.73;;;16.30;62.50;;;;;;4995586;28;20081;-76
2022/04/26 13:13:31;;;;;;;4.90;2.10;;;16.00;62.60;;;;;;5012006;28;20448;-77
2022/04/26 13:15:58;;;;;;;6.50;1.70;;;15.80;62.30;;;;;;4995762;28;20046;-76
2022/04/26 13:18:23;;;;;;;3.35;1.60;;;15.50;63.40;;;;;;4995616;28;20462;-76
2022/04/26 13:20:49;;;;;;;3.78;1.90;;;15.30;62.50;;;;;;5012518;28;20065;-77
2022/04/26 13:23:16;;;;;;;2.85;1.50;;;15.30;61.60;;;;;;4979680;28;20448;-77
2022/04/26 13:25:43;;;;;;;3.90;1.80;;;15.40;61.30;;;;;;4995795;28;20445;-77
2022/04/26 13:28:09;;;;;;;5.47;1.60;;;15.60;62.10;;;;;;5011941;28;20049;-77
2022/04/26 13:30:35;;;;;;;3.88;1.77;;;15.80;62.90;;;;;;4995104;28;20441;-76
2022/04/26 13:33:04;;;;;;;4.53;2.35;;;16.00;62.30;;;;;;5012179;28;20045;-77
2022/04/26 13:35:30;;;;;;;4.65;1.77;;;16.20;61.40;;;;;;5011981;28;20496;-76
2022/04/26 13:37:58;;;;;;;4.45;1.83;;;16.40;62.10;;;;;;5011770;28;20125;-77
2022/04/26 13:40:23;;;;;;;4.38;1.98;;;16.50;61.20;;;;;;5012655;28;20060;-77
2022/04/26 13:42:51;;;;;;;3.78;1.83;;;16.40;61.00;;;;;;5011839;28;20049;-76
2022/04/26 13:45:17;;;;;;;4.50;2.28;;;16.40;60.60;;;;;;5011579;28;20057;-78
2022/04/26 13:47:43;;;;;;;7.68;2.15;;;16.20;61.00;;;;;;4995607;28;20050;-76
2022/04/26 13:50:09;;;;;;;6.90;1.95;;;16.10;61.70;;;;;;4994928;28;20417;-77
2022/04/26 13:52:35;;;;;;;4.90;1.90;;;16.10;60.80;;;;;;5011525;28;20046;-78
2022/04/26 13:55:01;;;;;;;2.63;1.95;;;15.90;61.50;;;;;;5011534;28;20513;-77
2022/04/26 13:57:27;;;;;;;7.93;1.95;;;15.70;61.60;;;;;;4995294;28;20048;-77
2022/04/26 13:59:52;;;;;;;5.28;1.50;;;15.70;62.10;;;;;;5011415;28;20057;-77
2022/04/26 14:02:21;;;;;;;4.38;2.15;;;15.70;62.40;;;;;;4995604;28;20048;-76
2022/04/26 14:04:49;;;;;;;5.10;1.75;;;15.80;61.40;;;;;;4995199;28;20448;-77
2022/04/26 14:07:15;;;;;;;7.25;2.15;;;15.90;60.50;;;;;;5012487;28;20034;-76
2022/04/26 14:09:41;;;;;;;3.55;1.70;;;15.60;60.40;;;;;;4994300;28;20062;-77
2022/04/26 14:12:08;;;;;;;3.15;1.60;;;15.50;60.80;;;;;;5011049;28;20042;-77
2022/04/26 14:22:49;;;;;;;5.75;1.65;;;15.00;62.60;;;;;;5012380;28;20516;-76
2022/04/26 14:25:14;;;;;;;5.82;1.98;;;15.10;62.90;;;;;;4978392;28;20045;-77
2022/04/26 14:27:43;;;;;;;5.45;1.80;;;15.40;62.60;;;;;;4994837;28;20049;-77
2022/04/26 14:30:11;;;;;;;4.60;1.98;;;15.50;62.70;;;;;;5010479;28;20045;-77
2022/04/26 14:32:37;;;;;;;2.17;1.80;;;15.60;62.80;;;;;;4993487;28;20081;-77
2022/04/26 14:35:03;;;;;;;3.63;1.90;;;15.80;63.00;;;;;;4994875;28;20124;-77
2022/04/26 14:37:29;;;;;;;6.28;1.90;;;15.80;62.50;;;;;;5010782;28;20034;-77
2022/04/26 14:39:55;;;;;;;4.13;2.15;;;16.00;62.60;;;;;;5010380;28;20042;-78
2022/04/26 14:42:21;;;;;;;3.20;1.95;;;15.90;61.70;;;;;;4994295;28;20037;-78
2022/04/26 14:44:47;;;;;;;4.22;2.13;;;15.90;62.20;;;;;;4994165;28;20390;-77
2022/04/26 14:47:14;;;;;;;4.57;2.08;;;15.80;62.30;;;;;;5011029;28;20420;-77
2022/04/26 14:49:40;;;;;;;3.85;2.20;;;15.70;63.00;;;;;;5011276;28;20033;-71
2022/04/26 14:52:09;;;;;;;3.97;1.85;;;15.70;62.60;;;;;;5013074;28;20087;-77
2022/04/26 14:54:35;;;;;;;6.85;2.08;;;15.80;62.20;;;;;;5018486;28;20034;-77
2022/04/26 14:57:01;;;;;;;4.40;2.20;;;15.90;61.60;;;;;;5011057;28;20058;-77
2022/04/26 14:59:28;;;;;;;3.30;1.85;;;15.90;60.70;;;;;;5019891;28;20076;-78
2022/04/26 15:01:54;;;;;;;3.55;1.67;;;15.80;60.60;;;;;;5024917;28;20060;-77
2022/04/26 15:04:22;;;;;;;5.53;2.10;;;15.80;60.90;;;;;;5027064;28;20042;-77
2022/04/26 15:06:48;;;;;;;5.32;2.00;;;15.50;60.80;;;;;;5020350;28;20041;-77
2022/04/26 15:17:29;;;;;;;4.82;2.22;;;14.50;63.20;;;;;;5013281;28;20107;-78
2022/04/26 15:19:56;;;;;;;4.25;2.13;;;14.50;63.20;;;;;;5012858;28;20063;-77
2022/04/26 15:22:22;;;;;;;5.63;2.95;;;14.50;63.80;;;;;;4996929;28;20033;-78
2022/04/26 15:24:53;;;;;;;8.63;2.38;;;14.50;64.10;;;;;;5013073;28;20380;-77
2022/04/26 15:27:20;;;;;;;4.55;2.33;;;14.30;64.30;;;;;;4996880;28;20041;-77
2022/04/26 15:29:46;;;;;;;6.32;2.78;;;14.20;64.50;;;;;;5012472;28;20476;-77
2022/04/26 15:32:13;;;;;;;4.53;2.42;;;14.10;64.80;;;;;;5013382;28;20037;-77
2022/04/26 15:34:39;;;;;;;4.22;2.35;;;14.00;64.90;;;;;;5012877;28;20059;-77
2022/04/26 15:37:06;;;;;;;5.53;2.35;;;13.90;65.30;;;;;;5012797;28;20073;-77
2022/04/26 15:39:32;;;;;;;6.05;3.03;;;13.80;65.60;;;;;;5012706;28;20087;-76
2022/04/26 15:41:59;;;;;;;3.78;2.13;;;13.70;66.00;;;;;;4996840;28;20046;-77
2022/04/26 15:44:25;;;;;;;7.60;2.13;;;13.50;66.40;;;;;;5012754;28;20064;-77
2022/04/26 15:46:54;;;;;;;3.92;2.05;;;13.50;66.60;;;;;;5013226;28;20085;-77
2022/04/26 15:49:20;;;;;;;5.28;2.40;;;13.40;66.90;;;;;;5012144;28;20401;-77
2022/04/26 15:51:47;;;;;;;4.03;2.13;;;13.30;67.80;;;;;;4996061;28;20045;-77
2022/04/26 15:54:15;;;;;;;6.13;2.65;;;13.20;68.90;;;;;;4996482;28;20058;-78
2022/04/26 15:56:42;;;;;;;9.07;2.97;;;13.10;69.10;;;;;;5012670;28;20053;-77
2022/04/26 15:59:08;;;;;;;5.45;2.20;;;13.00;69.70;;;;;;4996325;28;20116;-77
2022/04/26 16:01:36;;;;;;;6.38;2.30;;;13.10;71.10;;;;;;5012405;28;20049;-76
2022/04/26 16:04:01;;;;;;;5.05;2.70;;;13.00;71.00;;;;;;5012811;28;20055;-77
2022/04/26 16:06:27;;;;;;;4.22;2.35;;;13.00;71.70;;;;;;5012516;28;20041;-77
2022/04/26 16:20:28;;;;;;;4.55;2.40;;;12.90;72.40;;;;;;4996412;28;20313;-76
2022/04/26 16:22:35;;;;;;;4.15;2.25;;;12.80;76.10;;;;;;5012566;28;20076;-77
2022/04/26 16:25:01;;;;;;;18.15;4.72;;;12.90;76.60;;;;;;4996270;28;20400;-77
2022/04/26 16:27:27;;;;;;;8.80;3.22;;;12.90;77.30;;;;;;5012201;28;20120;-76
2022/04/26 16:29:52;;;;;;;7.00;2.85;;;12.90;77.40;;;;;;5011905;28;20053;-76
2022/04/26 16:32:18;;;;;;;6.25;2.75;;;12.80;77.70;;;;;;5012179;28;20041;-77
2022/04/26 16:34:44;;;;;;;4.05;1.95;;;12.70;78.00;;;;;;4996106;28;20049;-77
2022/04/26 16:37:09;;;;;;;6.18;2.30;;;12.60;78.60;;;;;;5012385;28;20049;-76
2022/04/26 16:39:35;;;;;;;2.88;1.88;;;12.50;79.20;;;;;;5012031;28;20049;-77
2022/04/26 16:42:00;;;;;;;7.13;2.20;;;12.40;80.40;;;;;;5011801;28;20045;-76
2022/04/26 16:44:26;;;;;;;3.47;2.25;;;12.30;81.10;;;;;;4996226;28;20389;-79
2022/04/26 16:46:51;;;;;;;4.60;2.45;;;12.30;81.70;;;;;;4996407;28;20053;-76
2022/04/26 16:49:17;;;;;;;3.63;2.47;;;12.10;83.20;;;;;;4995847;28;20037;-76
2022/04/26 16:51:42;;;;;;;7.90;2.70;;;12.10;83.50;;;;;;5011924;28;20045;-77
2022/04/26 16:54:08;;;;;;;5.72;1.92;;;12.10;84.70;;;;;;4995937;28;20037;-78
2022/04/26 16:56:35;;;;;;;7.82;2.28;;;12.10;87.60;;;;;;5014882;28;20047;-77
2022/04/26 16:59:00;;;;;;;7.65;2.35;;;12.10;87.10;;;;;;5015888;28;20053;-77
2022/04/26 17:01:26;;;;;;;5.82;2.42;;;12.10;86.60;;;;;;4999317;28;20381;-76
2022/04/26 17:03:51;;;;;;;3.67;2.30;;;12.10;87.40;;;;;;5033541;28;20096;-76
2022/04/26 17:06:18;;;;;;;6.90;2.28;;;12.20;86.60;;;;;;5015828;28;20477;-77
2022/04/26 17:08:44;;;;;;;5.50;2.45;;;12.20;87.00;;;;;;5015126;28;20420;-77
2022/04/26 17:13:54;;;;;;;5.88;2.30;;;12.30;87.20;;;;;;5033804;28;20056;-76
2022/04/26 17:16:21;;;;;;;4.72;2.58;;;12.30;86.80;;;;;;4999408;28;20037;-76
2022/04/26 17:18:46;;;;;;;3.78;2.30;;;12.30;85.40;;;;;;4998986;28;20080;-76
2022/04/26 17:21:12;;;;;;;3.15;2.33;;;12.40;85.60;;;;;;5015268;28;20069;-77